sensor_id;sensor_type;location;lat;lon;timestamp;P1;durP1;ratioP1;P2;durP2;ratioP2
40122;SDS011;25832;45.490;4.912;2023-02-28T00:00:04;9.38;;;5.30;;
40122;SDS011;25832;45.490;4.912;2023-02-28T00:02:35;8.85;;;5.28;;
40122;SDS011;25832;45.490;4.912;2023-02-28T00:05:01;8.30;;;5.32;;
40122;SDS011;25832;45.490;4.912;2023-02-28T00:07:28;12.35;;;6.32;;
40122;SDS011;25832;45.490;4.912;2023-02-28T00:09:57;8.00;;;4.63;;
40122;SDS011;25832;45.490;4.912;2023-02-28T00:12:23;10.23;;;5.88;;
40122;SDS011;25832;45.490;4.912;2023-02-28T00:14:50;9.90;;;5.50;;
40122;SDS011;25832;45.490;4.912;2023-02-28T00:17:15;10.52;;;5.80;;
40122;SDS011;25832;45.490;4.912;2023-02-28T00:19:42;8.32;;;5.35;;
40122;SDS011;25832;45.490;4.912;2023-02-28T00:22:08;7.45;;;4.85;;
40122;SDS011;25832;45.490;4.912;2023-02-28T00:24:34;12.30;;;5.95;;
40122;SDS011;25832;45.490;4.912;2023-02-28T00:27:00;10.60;;;5.68;;
40122;SDS011;25832;45.490;4.912;2023-02-28T00:29:26;8.77;;;5.22;;
40122;SDS011;25832;45.490;4.912;2023-02-28T00:31:51;7.90;;;5.35;;
40122;SDS011;25832;45.490;4.912;2023-02-28T00:34:17;8.02;;;5.65;;
40122;SDS011;25832;45.490;4.912;2023-02-28T00:36:42;9.90;;;5.88;;
40122;SDS011;25832;45.490;4.912;2023-02-28T00:39:11;10.00;;;5.60;;
40122;SDS011;25832;45.490;4.912;2023-02-28T00:41:37;8.65;;;5.20;;
40122;SDS011;25832;45.490;4.912;2023-02-28T00:44:02;6.93;;;4.90;;
40122;SDS011;25832;45.490;4.912;2023-02-28T00:46:28;13.05;;;6.60;;
40122;SDS011;25832;45.490;4.912;2023-02-28T00:48:54;11.68;;;6.32;;
40122;SDS011;25832;45.490;4.912;2023-02-28T00:51:20;12.15;;;5.45;;
40122;SDS011;25832;45.490;4.912;2023-02-28T00:53:45;8.85;;;5.32;;
40122;SDS011;25832;45.490;4.912;2023-02-28T00:56:11;9.38;;;5.10;;
40122;SDS011;25832;45.490;4.912;2023-02-28T00:58:37;10.02;;;6.10;;
40122;SDS011;25832;45.490;4.912;2023-02-28T01:01:02;10.65;;;5.93;;
40122;SDS011;25832;45.490;4.912;2023-02-28T01:03:28;9.95;;;5.72;;
40122;SDS011;25832;45.490;4.912;2023-02-28T01:05:54;9.75;;;5.18;;
40122;SDS011;25832;45.490;4.912;2023-02-28T01:08:19;14.35;;;6.22;;
40122;SDS011;25832;45.490;4.912;2023-02-28T01:10:45;10.77;;;5.82;;
40122;SDS011;25832;45.490;4.912;2023-02-28T01:13:11;10.15;;;6.47;;
40122;SDS011;25832;45.490;4.912;2023-02-28T01:15:38;9.90;;;5.85;;
40122;SDS011;25832;45.490;4.912;2023-02-28T01:18:08;9.40;;;5.50;;
40122;SDS011;25832;45.490;4.912;2023-02-28T01:20:36;9.70;;;5.30;;
40122;SDS011;25832;45.490;4.912;2023-02-28T01:23:02;11.80;;;6.47;;
40122;SDS011;25832;45.490;4.912;2023-02-28T01:25:28;9.45;;;5.47;;
40122;SDS011;25832;45.490;4.912;2023-02-28T01:27:54;9.50;;;6.28;;
40122;SDS011;25832;45.490;4.912;2023-02-28T01:30:19;8.95;;;5.88;;
40122;SDS011;25832;45.490;4.912;2023-02-28T01:32:45;12.55;;;6.47;;
40122;SDS011;25832;45.490;4.912;2023-02-28T01:35:11;10.75;;;6.18;;
40122;SDS011;25832;45.490;4.912;2023-02-28T01:37:36;9.65;;;6.10;;
40122;SDS011;25832;45.490;4.912;2023-02-28T01:40:02;11.27;;;6.60;;
40122;SDS011;25832;45.490;4.912;2023-02-28T01:42:28;13.13;;;6.53;;
40122;SDS011;25832;45.490;4.912;2023-02-28T01:44:55;12.50;;;7.78;;
40122;SDS011;25832;45.490;4.912;2023-02-28T01:47:44;12.00;;;6.68;;
40122;SDS011;25832;45.490;4.912;2023-02-28T01:50:12;10.82;;;6.30;;
40122;SDS011;25832;45.490;4.912;2023-02-28T01:52:42;13.20;;;6.95;;
40122;SDS011;25832;45.490;4.912;2023-02-28T01:55:10;11.95;;;7.28;;
40122;SDS011;25832;45.490;4.912;2023-02-28T01:57:45;12.85;;;7.45;;
40122;SDS011;25832;45.490;4.912;2023-02-28T02:00:14;11.85;;;6.82;;
40122;SDS011;25832;45.490;4.912;2023-02-28T02:02:42;12.77;;;6.85;;
40122;SDS011;25832;45.490;4.912;2023-02-28T02:05:18;11.05;;;6.68;;
40122;SDS011;25832;45.490;4.912;2023-02-28T02:07:52;12.40;;;7.20;;
40122;SDS011;25832;45.490;4.912;2023-02-28T02:10:22;12.80;;;7.65;;
40122;SDS011;25832;45.490;4.912;2023-02-28T02:18:40;12.07;;;7.28;;
40122;SDS011;25832;45.490;4.912;2023-02-28T02:27:03;14.13;;;7.90;;
40122;SDS011;25832;45.490;4.912;2023-02-28T02:45:34;11.88;;;6.45;;
40122;SDS011;25832;45.490;4.912;2023-02-28T02:48:21;8.40;;;5.82;;
40122;SDS011;25832;45.490;4.912;2023-02-28T02:50:55;11.20;;;6.35;;
40122;SDS011;25832;45.490;4.912;2023-02-28T02:53:28;9.95;;;6.45;;
40122;SDS011;25832;45.490;4.912;2023-02-28T02:56:00;10.38;;;6.45;;
40122;SDS011;25832;45.490;4.912;2023-02-28T02:58:30;9.98;;;5.82;;
40122;SDS011;25832;45.490;4.912;2023-02-28T03:01:00;15.68;;;6.93;;
40122;SDS011;25832;45.490;4.912;2023-02-28T03:03:28;9.63;;;5.90;;
40122;SDS011;25832;45.490;4.912;2023-02-28T03:06:00;11.60;;;6.38;;
40122;SDS011;25832;45.490;4.912;2023-02-28T03:08:26;11.82;;;7.65;;
40122;SDS011;25832;45.490;4.912;2023-02-28T03:10:57;11.05;;;6.18;;
40122;SDS011;25832;45.490;4.912;2023-02-28T03:21:38;8.00;;;5.43;;
40122;SDS011;25832;45.490;4.912;2023-02-28T03:27:09;8.68;;;5.18;;
40122;SDS011;25832;45.490;4.912;2023-02-28T03:29:42;10.65;;;6.45;;
40122;SDS011;25832;45.490;4.912;2023-02-28T03:32:19;8.85;;;5.32;;
40122;SDS011;25832;45.490;4.912;2023-02-28T03:34:56;11.30;;;5.55;;
40122;SDS011;25832;45.490;4.912;2023-02-28T03:37:30;9.38;;;5.95;;
40122;SDS011;25832;45.490;4.912;2023-02-28T03:40:10;10.45;;;5.15;;
40122;SDS011;25832;45.490;4.912;2023-02-28T03:42:39;7.57;;;4.93;;
40122;SDS011;25832;45.490;4.912;2023-02-28T03:45:10;8.18;;;4.97;;
40122;SDS011;25832;45.490;4.912;2023-02-28T03:47:52;6.43;;;4.32;;
40122;SDS011;25832;45.490;4.912;2023-02-28T03:50:22;10.45;;;5.53;;
40122;SDS011;25832;45.490;4.912;2023-02-28T03:55:48;11.43;;;5.78;;
40122;SDS011;25832;45.490;4.912;2023-02-28T04:01:43;10.85;;;5.82;;
40122;SDS011;25832;45.490;4.912;2023-02-28T04:03:52;8.98;;;5.22;;
40122;SDS011;25832;45.490;4.912;2023-02-28T04:06:19;8.80;;;4.32;;
40122;SDS011;25832;45.490;4.912;2023-02-28T04:08:47;11.85;;;5.28;;
40122;SDS011;25832;45.490;4.912;2023-02-28T04:11:20;8.82;;;5.63;;
40122;SDS011;25832;45.490;4.912;2023-02-28T04:14:08;9.40;;;5.40;;
40122;SDS011;25832;45.490;4.912;2023-02-28T04:16:37;8.98;;;5.15;;
40122;SDS011;25832;45.490;4.912;2023-02-28T04:19:05;10.20;;;5.13;;
40122;SDS011;25832;45.490;4.912;2023-02-28T04:21:33;9.05;;;5.28;;
40122;SDS011;25832;45.490;4.912;2023-02-28T04:24:06;10.18;;;5.75;;
40122;SDS011;25832;45.490;4.912;2023-02-28T04:26:34;10.25;;;5.40;;
40122;SDS011;25832;45.490;4.912;2023-02-28T04:29:02;6.60;;;5.00;;
40122;SDS011;25832;45.490;4.912;2023-02-28T04:31:29;10.50;;;5.82;;
40122;SDS011;25832;45.490;4.912;2023-02-28T04:33:55;9.15;;;5.05;;
40122;SDS011;25832;45.490;4.912;2023-02-28T04:36:21;8.35;;;4.78;;
40122;SDS011;25832;45.490;4.912;2023-02-28T04:38:48;11.35;;;6.15;;
40122;SDS011;25832;45.490;4.912;2023-02-28T04:41:14;8.43;;;4.85;;
40122;SDS011;25832;45.490;4.912;2023-02-28T04:43:40;7.85;;;5.15;;
40122;SDS011;25832;45.490;4.912;2023-02-28T04:46:06;12.30;;;5.20;;
40122;SDS011;25832;45.490;4.912;2023-02-28T04:48:34;16.38;;;5.57;;
40122;SDS011;25832;45.490;4.912;2023-02-28T04:51:02;10.07;;;5.35;;
40122;SDS011;25832;45.490;4.912;2023-02-28T04:53:30;11.70;;;5.25;;
40122;SDS011;25832;45.490;4.912;2023-02-28T04:55:56;9.48;;;5.57;;
40122;SDS011;25832;45.490;4.912;2023-02-28T04:58:23;8.77;;;5.22;;
40122;SDS011;25832;45.490;4.912;2023-02-28T05:00:52;9.80;;;5.65;;
40122;SDS011;25832;45.490;4.912;2023-02-28T05:03:19;9.35;;;5.78;;
40122;SDS011;25832;45.490;4.912;2023-02-28T05:05:46;7.40;;;5.30;;
40122;SDS011;25832;45.490;4.912;2023-02-28T05:08:12;10.32;;;5.35;;
40122;SDS011;25832;45.490;4.912;2023-02-28T05:10:37;9.57;;;5.97;;
40122;SDS011;25832;45.490;4.912;2023-02-28T05:13:03;11.98;;;6.15;;
40122;SDS011;25832;45.490;4.912;2023-02-28T05:15:29;13.80;;;7.00;;
40122;SDS011;25832;45.490;4.912;2023-02-28T05:17:54;10.65;;;6.75;;
40122;SDS011;25832;45.490;4.912;2023-02-28T05:20:20;13.45;;;6.47;;
40122;SDS011;25832;45.490;4.912;2023-02-28T05:22:46;15.15;;;7.20;;
40122;SDS011;25832;45.490;4.912;2023-02-28T05:25:13;11.73;;;7.05;;
40122;SDS011;25832;45.490;4.912;2023-02-28T05:27:42;9.98;;;6.28;;
40122;SDS011;25832;45.490;4.912;2023-02-28T05:30:09;10.85;;;6.28;;
40122;SDS011;25832;45.490;4.912;2023-02-28T05:32:38;15.00;;;6.05;;
40122;SDS011;25832;45.490;4.912;2023-02-28T05:35:08;12.63;;;6.65;;
40122;SDS011;25832;45.490;4.912;2023-02-28T05:37:35;10.00;;;6.25;;
40122;SDS011;25832;45.490;4.912;2023-02-28T05:40:02;12.18;;;6.25;;
40122;SDS011;25832;45.490;4.912;2023-02-28T05:42:31;11.90;;;6.32;;
40122;SDS011;25832;45.490;4.912;2023-02-28T05:44:57;11.38;;;6.25;;
40122;SDS011;25832;45.490;4.912;2023-02-28T05:47:22;12.65;;;6.00;;
40122;SDS011;25832;45.490;4.912;2023-02-28T05:49:48;12.02;;;6.30;;
40122;SDS011;25832;45.490;4.912;2023-02-28T05:52:14;13.57;;;6.63;;
40122;SDS011;25832;45.490;4.912;2023-02-28T05:54:40;9.63;;;6.65;;
40122;SDS011;25832;45.490;4.912;2023-02-28T05:57:06;11.52;;;6.85;;
40122;SDS011;25832;45.490;4.912;2023-02-28T05:59:32;11.57;;;6.05;;
40122;SDS011;25832;45.490;4.912;2023-02-28T06:01:58;13.43;;;6.88;;
40122;SDS011;25832;45.490;4.912;2023-02-28T06:04:23;12.10;;;6.28;;
40122;SDS011;25832;45.490;4.912;2023-02-28T06:06:49;17.52;;;6.75;;
40122;SDS011;25832;45.490;4.912;2023-02-28T06:09:16;14.70;;;6.13;;
40122;SDS011;25832;45.490;4.912;2023-02-28T06:11:42;11.20;;;6.57;;
40122;SDS011;25832;45.490;4.912;2023-02-28T06:14:09;12.02;;;6.20;;
40122;SDS011;25832;45.490;4.912;2023-02-28T06:16:43;10.82;;;7.03;;
40122;SDS011;25832;45.490;4.912;2023-02-28T06:19:09;9.25;;;5.40;;
40122;SDS011;25832;45.490;4.912;2023-02-28T06:21:35;11.55;;;5.90;;
40122;SDS011;25832;45.490;4.912;2023-02-28T06:24:02;13.05;;;5.95;;
40122;SDS011;25832;45.490;4.912;2023-02-28T06:26:28;11.98;;;6.10;;
40122;SDS011;25832;45.490;4.912;2023-02-28T06:28:55;7.75;;;4.80;;
40122;SDS011;25832;45.490;4.912;2023-02-28T06:31:21;10.90;;;6.40;;
40122;SDS011;25832;45.490;4.912;2023-02-28T06:33:48;10.73;;;5.80;;
40122;SDS011;25832;45.490;4.912;2023-02-28T06:36:14;10.52;;;5.88;;
40122;SDS011;25832;45.490;4.912;2023-02-28T06:38:40;13.88;;;5.85;;
40122;SDS011;25832;45.490;4.912;2023-02-28T06:41:07;10.70;;;5.65;;
40122;SDS011;25832;45.490;4.912;2023-02-28T06:43:35;13.88;;;5.75;;
40122;SDS011;25832;45.490;4.912;2023-02-28T06:46:04;10.80;;;6.22;;
40122;SDS011;25832;45.490;4.912;2023-02-28T06:48:33;8.65;;;5.40;;
40122;SDS011;25832;45.490;4.912;2023-02-28T06:51:03;9.38;;;5.15;;
40122;SDS011;25832;45.490;4.912;2023-02-28T06:53:34;9.48;;;4.65;;
40122;SDS011;25832;45.490;4.912;2023-02-28T06:56:04;10.82;;;5.50;;
40122;SDS011;25832;45.490;4.912;2023-02-28T06:58:31;8.73;;;4.95;;
40122;SDS011;25832;45.490;4.912;2023-02-28T07:00:57;12.77;;;5.88;;
40122;SDS011;25832;45.490;4.912;2023-02-28T07:03:22;10.60;;;5.63;;
40122;SDS011;25832;45.490;4.912;2023-02-28T07:05:48;9.13;;;5.03;;
40122;SDS011;25832;45.490;4.912;2023-02-28T07:08:14;6.97;;;4.78;;
40122;SDS011;25832;45.490;4.912;2023-02-28T07:10:40;11.07;;;5.30;;
40122;SDS011;25832;45.490;4.912;2023-02-28T07:13:07;8.32;;;5.38;;
40122;SDS011;25832;45.490;4.912;2023-02-28T07:15:33;17.45;;;6.35;;
40122;SDS011;25832;45.490;4.912;2023-02-28T07:18:00;10.35;;;6.38;;
40122;SDS011;25832;45.490;4.912;2023-02-28T07:20:25;9.13;;;5.80;;
40122;SDS011;25832;45.490;4.912;2023-02-28T07:22:51;9.18;;;5.53;;
40122;SDS011;25832;45.490;4.912;2023-02-28T07:25:23;10.77;;;4.68;;
40122;SDS011;25832;45.490;4.912;2023-02-28T07:27:53;10.18;;;5.95;;
40122;SDS011;25832;45.490;4.912;2023-02-28T07:30:19;9.65;;;6.45;;
40122;SDS011;25832;45.490;4.912;2023-02-28T07:32:45;17.10;;;6.72;;
40122;SDS011;25832;45.490;4.912;2023-02-28T07:35:11;9.75;;;6.80;;
40122;SDS011;25832;45.490;4.912;2023-02-28T07:37:37;11.57;;;6.53;;
40122;SDS011;25832;45.490;4.912;2023-02-28T07:40:03;10.70;;;5.82;;
40122;SDS011;25832;45.490;4.912;2023-02-28T07:42:33;11.77;;;6.05;;
40122;SDS011;25832;45.490;4.912;2023-02-28T07:45:00;12.25;;;6.20;;
40122;SDS011;25832;45.490;4.912;2023-02-28T07:47:28;8.20;;;5.78;;
40122;SDS011;25832;45.490;4.912;2023-02-28T07:49:54;9.73;;;5.15;;
40122;SDS011;25832;45.490;4.912;2023-02-28T07:52:20;16.23;;;6.40;;
40122;SDS011;25832;45.490;4.912;2023-02-28T07:54:48;11.60;;;6.28;;
40122;SDS011;25832;45.490;4.912;2023-02-28T07:57:14;12.63;;;6.03;;
40122;SDS011;25832;45.490;4.912;2023-02-28T07:59:40;8.38;;;5.50;;
40122;SDS011;25832;45.490;4.912;2023-02-28T08:02:06;12.43;;;6.00;;
40122;SDS011;25832;45.490;4.912;2023-02-28T08:04:35;13.50;;;6.32;;
40122;SDS011;25832;45.490;4.912;2023-02-28T08:07:01;11.40;;;5.90;;
40122;SDS011;25832;45.490;4.912;2023-02-28T08:09:26;10.00;;;5.65;;
40122;SDS011;25832;45.490;4.912;2023-02-28T08:11:52;10.82;;;6.05;;
40122;SDS011;25832;45.490;4.912;2023-02-28T08:14:18;9.82;;;5.13;;
40122;SDS011;25832;45.490;4.912;2023-02-28T08:16:43;9.00;;;4.60;;
40122;SDS011;25832;45.490;4.912;2023-02-28T08:19:09;11.40;;;6.38;;
40122;SDS011;25832;45.490;4.912;2023-02-28T08:21:35;14.95;;;6.05;;
40122;SDS011;25832;45.490;4.912;2023-02-28T08:24:00;10.57;;;6.25;;
40122;SDS011;25832;45.490;4.912;2023-02-28T08:26:26;11.30;;;5.45;;
40122;SDS011;25832;45.490;4.912;2023-02-28T08:28:51;15.40;;;5.93;;
40122;SDS011;25832;45.490;4.912;2023-02-28T08:31:17;7.70;;;4.63;;
40122;SDS011;25832;45.490;4.912;2023-02-28T08:33:44;8.80;;;5.78;;
40122;SDS011;25832;45.490;4.912;2023-02-28T08:36:10;10.45;;;4.57;;
40122;SDS011;25832;45.490;4.912;2023-02-28T08:38:37;9.00;;;5.72;;
40122;SDS011;25832;45.490;4.912;2023-02-28T08:41:04;12.57;;;5.47;;
40122;SDS011;25832;45.490;4.912;2023-02-28T08:43:33;7.07;;;4.80;;
40122;SDS011;25832;45.490;4.912;2023-02-28T08:45:59;9.13;;;4.53;;
40122;SDS011;25832;45.490;4.912;2023-02-28T08:48:26;14.68;;;5.60;;
40122;SDS011;25832;45.490;4.912;2023-02-28T08:53:22;12.20;;;5.57;;
40122;SDS011;25832;45.490;4.912;2023-02-28T08:55:55;8.05;;;6.05;;
40122;SDS011;25832;45.490;4.912;2023-02-28T08:58:22;9.35;;;5.40;;
40122;SDS011;25832;45.490;4.912;2023-02-28T09:00:48;8.88;;;5.65;;
40122;SDS011;25832;45.490;4.912;2023-02-28T09:03:13;9.32;;;5.35;;
40122;SDS011;25832;45.490;4.912;2023-02-28T09:05:39;7.68;;;5.20;;
40122;SDS011;25832;45.490;4.912;2023-02-28T09:08:04;9.40;;;5.18;;
40122;SDS011;25832;45.490;4.912;2023-02-28T09:10:30;9.52;;;5.80;;
40122;SDS011;25832;45.490;4.912;2023-02-28T09:12:56;9.80;;;5.63;;
40122;SDS011;25832;45.490;4.912;2023-02-28T09:15:21;11.63;;;5.05;;
40122;SDS011;25832;45.490;4.912;2023-02-28T09:17:47;7.60;;;4.75;;
40122;SDS011;25832;45.490;4.912;2023-02-28T09:20:13;7.82;;;5.05;;
40122;SDS011;25832;45.490;4.912;2023-02-28T09:22:38;13.68;;;4.93;;
40122;SDS011;25832;45.490;4.912;2023-02-28T09:25:05;8.50;;;5.35;;
40122;SDS011;25832;45.490;4.912;2023-02-28T09:27:31;7.13;;;5.20;;
40122;SDS011;25832;45.490;4.912;2023-02-28T09:29:57;7.88;;;4.95;;
40122;SDS011;25832;45.490;4.912;2023-02-28T09:32:22;9.75;;;5.53;;
40122;SDS011;25832;45.490;4.912;2023-02-28T09:34:48;9.80;;;5.95;;
40122;SDS011;25832;45.490;4.912;2023-02-28T09:37:14;9.25;;;5.07;;
40122;SDS011;25832;45.490;4.912;2023-02-28T09:39:39;9.88;;;5.32;;
40122;SDS011;25832;45.490;4.912;2023-02-28T09:42:05;8.30;;;5.45;;
40122;SDS011;25832;45.490;4.912;2023-02-28T09:44:38;11.07;;;5.80;;
40122;SDS011;25832;45.490;4.912;2023-02-28T09:49:50;8.32;;;5.38;;
40122;SDS011;25832;45.490;4.912;2023-02-28T09:52:20;11.68;;;4.80;;
40122;SDS011;25832;45.490;4.912;2023-02-28T09:54:50;9.77;;;5.57;;
40122;SDS011;25832;45.490;4.912;2023-02-28T09:57:31;10.82;;;5.60;;
40122;SDS011;25832;45.490;4.912;2023-02-28T10:05:15;9.07;;;5.03;;
40122;SDS011;25832;45.490;4.912;2023-02-28T10:07:53;11.35;;;5.53;;
40122;SDS011;25832;45.490;4.912;2023-02-28T10:10:37;11.25;;;5.93;;
40122;SDS011;25832;45.490;4.912;2023-02-28T10:13:17;16.98;;;6.35;;
40122;SDS011;25832;45.490;4.912;2023-02-28T10:15:52;8.27;;;5.82;;
40122;SDS011;25832;45.490;4.912;2023-02-28T10:19:00;12.35;;;6.15;;
40122;SDS011;25832;45.490;4.912;2023-02-28T10:21:37;8.05;;;5.65;;
40122;SDS011;25832;45.490;4.912;2023-02-28T10:27:12;7.78;;;5.63;;
40122;SDS011;25832;45.490;4.912;2023-02-28T10:29:44;6.85;;;4.13;;
40122;SDS011;25832;45.490;4.912;2023-02-28T10:32:14;9.10;;;5.57;;
40122;SDS011;25832;45.490;4.912;2023-02-28T10:34:46;10.23;;;6.05;;
40122;SDS011;25832;45.490;4.912;2023-02-28T10:37:19;9.35;;;5.90;;
40122;SDS011;25832;45.490;4.912;2023-02-28T10:39:46;8.05;;;5.90;;
40122;SDS011;25832;45.490;4.912;2023-02-28T10:42:22;8.05;;;6.05;;
40122;SDS011;25832;45.490;4.912;2023-02-28T10:45:12;8.75;;;5.50;;
40122;SDS011;25832;45.490;4.912;2023-02-28T10:47:48;10.13;;;5.78;;
40122;SDS011;25832;45.490;4.912;2023-02-28T10:50:28;10.10;;;6.53;;
40122;SDS011;25832;45.490;4.912;2023-02-28T10:52:55;10.35;;;6.72;;
40122;SDS011;25832;45.490;4.912;2023-02-28T10:55:55;9.02;;;6.35;;
40122;SDS011;25832;45.490;4.912;2023-02-28T10:58:23;9.38;;;5.63;;
40122;SDS011;25832;45.490;4.912;2023-02-28T11:00:50;11.10;;;5.80;;
40122;SDS011;25832;45.490;4.912;2023-02-28T11:03:24;7.70;;;4.82;;
40122;SDS011;25832;45.490;4.912;2023-02-28T11:06:04;8.05;;;5.47;;
40122;SDS011;25832;45.490;4.912;2023-02-28T11:11:23;8.35;;;5.78;;
40122;SDS011;25832;45.490;4.912;2023-02-28T11:13:55;10.95;;;5.93;;
40122;SDS011;25832;45.490;4.912;2023-02-28T11:16:31;7.32;;;5.35;;
40122;SDS011;25832;45.490;4.912;2023-02-28T11:18:59;8.80;;;6.30;;
40122;SDS011;25832;45.490;4.912;2023-02-28T11:21:29;9.23;;;5.72;;
40122;SDS011;25832;45.490;4.912;2023-02-28T11:24:14;10.95;;;6.05;;
40122;SDS011;25832;45.490;4.912;2023-02-28T11:27:01;15.70;;;6.72;;
40122;SDS011;25832;45.490;4.912;2023-02-28T11:29:28;9.55;;;6.03;;
40122;SDS011;25832;45.490;4.912;2023-02-28T11:37:31;7.22;;;5.18;;
40122;SDS011;25832;45.490;4.912;2023-02-28T11:39:58;11.57;;;5.90;;
40122;SDS011;25832;45.490;4.912;2023-02-28T11:50:42;10.05;;;5.70;;
40122;SDS011;25832;45.490;4.912;2023-02-28T11:59:33;9.82;;;6.20;;
40122;SDS011;25832;45.490;4.912;2023-02-28T12:02:23;11.55;;;6.22;;
40122;SDS011;25832;45.490;4.912;2023-02-28T12:13:29;10.10;;;6.20;;
40122;SDS011;25832;45.490;4.912;2023-02-28T12:19:21;8.77;;;5.85;;
40122;SDS011;25832;45.490;4.912;2023-02-28T12:27:46;10.90;;;7.22;;
40122;SDS011;25832;45.490;4.912;2023-02-28T12:30:32;14.35;;;7.22;;
40122;SDS011;25832;45.490;4.912;2023-02-28T12:33:06;10.32;;;6.57;;
40122;SDS011;25832;45.490;4.912;2023-02-28T12:38:10;11.18;;;6.70;;
40122;SDS011;25832;45.490;4.912;2023-02-28T12:40:45;10.45;;;6.68;;
40122;SDS011;25832;45.490;4.912;2023-02-28T12:43:19;10.73;;;7.03;;
40122;SDS011;25832;45.490;4.912;2023-02-28T12:45:57;10.95;;;6.88;;
40122;SDS011;25832;45.490;4.912;2023-02-28T12:48:29;8.80;;;7.20;;
40122;SDS011;25832;45.490;4.912;2023-02-28T12:51:04;8.45;;;6.78;;
40122;SDS011;25832;45.490;4.912;2023-02-28T12:59:22;10.45;;;7.03;;
40122;SDS011;25832;45.490;4.912;2023-02-28T13:08:03;11.45;;;7.50;;
40122;SDS011;25832;45.490;4.912;2023-02-28T13:10:46;11.77;;;7.22;;
40122;SDS011;25832;45.490;4.912;2023-02-28T13:13:20;11.45;;;6.93;;
40122;SDS011;25832;45.490;4.912;2023-02-28T13:16:00;15.30;;;8.73;;
40122;SDS011;25832;45.490;4.912;2023-02-28T13:24:09;13.23;;;8.23;;
40122;SDS011;25832;45.490;4.912;2023-02-28T13:27:23;13.30;;;8.38;;
40122;SDS011;25832;45.490;4.912;2023-02-28T13:29:32;16.95;;;8.43;;
40122;SDS011;25832;45.490;4.912;2023-02-28T13:34:39;11.10;;;7.30;;
40122;SDS011;25832;45.490;4.912;2023-02-28T13:58:41;12.50;;;7.65;;
40122;SDS011;25832;45.490;4.912;2023-02-28T14:01:31;18.15;;;8.88;;
40122;SDS011;25832;45.490;4.912;2023-02-28T14:06:52;14.70;;;8.55;;
40122;SDS011;25832;45.490;4.912;2023-02-28T14:09:27;13.77;;;8.75;;
40122;SDS011;25832;45.490;4.912;2023-02-28T14:11:56;13.73;;;8.32;;
40122;SDS011;25832;45.490;4.912;2023-02-28T14:17:03;14.10;;;8.52;;
40122;SDS011;25832;45.490;4.912;2023-02-28T14:19:31;12.27;;;8.65;;
40122;SDS011;25832;45.490;4.912;2023-02-28T14:30:14;15.80;;;10.18;;
40122;SDS011;25832;45.490;4.912;2023-02-28T14:35:29;13.65;;;8.82;;
40122;SDS011;25832;45.490;4.912;2023-02-28T14:41:29;12.00;;;9.00;;
40122;SDS011;25832;45.490;4.912;2023-02-28T14:44:01;17.42;;;8.77;;
40122;SDS011;25832;45.490;4.912;2023-02-28T14:46:37;12.40;;;8.52;;
40122;SDS011;25832;45.490;4.912;2023-02-28T14:49:05;18.48;;;9.93;;
40122;SDS011;25832;45.490;4.912;2023-02-28T14:51:32;20.20;;;9.30;;
40122;SDS011;25832;45.490;4.912;2023-02-28T14:53:59;15.45;;;8.45;;
40122;SDS011;25832;45.490;4.912;2023-02-28T14:56:34;14.95;;;8.88;;
40122;SDS011;25832;45.490;4.912;2023-02-28T14:59:02;14.88;;;8.43;;
40122;SDS011;25832;45.490;4.912;2023-02-28T15:01:29;15.88;;;9.43;;
40122;SDS011;25832;45.490;4.912;2023-02-28T15:04:01;13.48;;;8.50;;
40122;SDS011;25832;45.490;4.912;2023-02-28T15:06:29;14.90;;;9.77;;
40122;SDS011;25832;45.490;4.912;2023-02-28T15:11:40;15.48;;;8.20;;
40122;SDS011;25832;45.490;4.912;2023-02-28T15:14:06;13.10;;;9.23;;
40122;SDS011;25832;45.490;4.912;2023-02-28T15:16:33;15.27;;;9.45;;
40122;SDS011;25832;45.490;4.912;2023-02-28T15:19:06;15.45;;;9.48;;
40122;SDS011;25832;45.490;4.912;2023-02-28T15:21:40;12.75;;;8.32;;
40122;SDS011;25832;45.490;4.912;2023-02-28T15:26:43;12.43;;;8.93;;
40122;SDS011;25832;45.490;4.912;2023-02-28T15:29:15;19.73;;;11.60;;
40122;SDS011;25832;45.490;4.912;2023-02-28T15:31:49;17.75;;;9.27;;
40122;SDS011;25832;45.490;4.912;2023-02-28T15:34:21;15.63;;;9.73;;
40122;SDS011;25832;45.490;4.912;2023-02-28T15:36:52;14.98;;;10.48;;
40122;SDS011;25832;45.490;4.912;2023-02-28T15:39:19;14.75;;;10.15;;
40122;SDS011;25832;45.490;4.912;2023-02-28T15:41:52;19.02;;;9.75;;
40122;SDS011;25832;45.490;4.912;2023-02-28T15:44:34;16.77;;;8.63;;
40122;SDS011;25832;45.490;4.912;2023-02-28T15:52:59;14.48;;;9.05;;
40122;SDS011;25832;45.490;4.912;2023-02-28T15:55:10;17.10;;;9.88;;
40122;SDS011;25832;45.490;4.912;2023-02-28T15:57:43;16.42;;;9.10;;
40122;SDS011;25832;45.490;4.912;2023-02-28T16:00:11;12.85;;;8.82;;
40122;SDS011;25832;45.490;4.912;2023-02-28T16:02:40;15.20;;;9.38;;
40122;SDS011;25832;45.490;4.912;2023-02-28T16:07:35;15.68;;;9.23;;
40122;SDS011;25832;45.490;4.912;2023-02-28T16:10:06;13.40;;;8.75;;
40122;SDS011;25832;45.490;4.912;2023-02-28T16:12:35;11.23;;;7.68;;
40122;SDS011;25832;45.490;4.912;2023-02-28T16:15:05;17.77;;;9.25;;
40122;SDS011;25832;45.490;4.912;2023-02-28T16:17:42;14.25;;;9.27;;
40122;SDS011;25832;45.490;4.912;2023-02-28T16:20:12;13.27;;;9.20;;
40122;SDS011;25832;45.490;4.912;2023-02-28T16:22:39;18.65;;;10.13;;
40122;SDS011;25832;45.490;4.912;2023-02-28T16:25:07;20.20;;;10.93;;
40122;SDS011;25832;45.490;4.912;2023-02-28T16:27:45;22.42;;;9.45;;
40122;SDS011;25832;45.490;4.912;2023-02-28T16:30:21;20.58;;;9.45;;
40122;SDS011;25832;45.490;4.912;2023-02-28T16:32:48;14.77;;;8.25;;
40122;SDS011;25832;45.490;4.912;2023-02-28T16:35:15;14.60;;;9.68;;
40122;SDS011;25832;45.490;4.912;2023-02-28T16:37:42;16.42;;;9.30;;
40122;SDS011;25832;45.490;4.912;2023-02-28T16:40:13;12.88;;;9.10;;
40122;SDS011;25832;45.490;4.912;2023-02-28T16:42:40;14.15;;;8.95;;
40122;SDS011;25832;45.490;4.912;2023-02-28T16:45:10;17.75;;;10.82;;
40122;SDS011;25832;45.490;4.912;2023-02-28T16:47:41;14.45;;;8.63;;
40122;SDS011;25832;45.490;4.912;2023-02-28T16:50:15;15.05;;;8.50;;
40122;SDS011;25832;45.490;4.912;2023-02-28T16:52:40;16.33;;;9.27;;
40122;SDS011;25832;45.490;4.912;2023-02-28T16:55:06;16.77;;;10.35;;
40122;SDS011;25832;45.490;4.912;2023-02-28T16:57:32;16.98;;;9.18;;
40122;SDS011;25832;45.490;4.912;2023-02-28T16:59:58;24.00;;;9.20;;
40122;SDS011;25832;45.490;4.912;2023-02-28T17:02:24;13.48;;;8.57;;
40122;SDS011;25832;45.490;4.912;2023-02-28T17:04:49;13.38;;;8.38;;
40122;SDS011;25832;45.490;4.912;2023-02-28T17:07:15;13.32;;;8.88;;
40122;SDS011;25832;45.490;4.912;2023-02-28T17:09:41;19.08;;;9.95;;
40122;SDS011;25832;45.490;4.912;2023-02-28T17:12:08;17.80;;;9.38;;
40122;SDS011;25832;45.490;4.912;2023-02-28T17:14:34;16.92;;;10.23;;
40122;SDS011;25832;45.490;4.912;2023-02-28T17:17:00;18.70;;;9.75;;
40122;SDS011;25832;45.490;4.912;2023-02-28T17:19:26;15.93;;;10.10;;
40122;SDS011;25832;45.490;4.912;2023-02-28T17:21:53;16.20;;;9.50;;
40122;SDS011;25832;45.490;4.912;2023-02-28T17:24:18;16.58;;;9.48;;
40122;SDS011;25832;45.490;4.912;2023-02-28T17:26:44;14.15;;;9.02;;
40122;SDS011;25832;45.490;4.912;2023-02-28T17:29:16;14.95;;;9.00;;
40122;SDS011;25832;45.490;4.912;2023-02-28T17:31:44;14.05;;;8.95;;
40122;SDS011;25832;45.490;4.912;2023-02-28T17:34:09;17.05;;;9.45;;
40122;SDS011;25832;45.490;4.912;2023-02-28T17:36:35;18.75;;;9.05;;
40122;SDS011;25832;45.490;4.912;2023-02-28T17:39:03;13.82;;;9.30;;
40122;SDS011;25832;45.490;4.912;2023-02-28T17:41:33;14.57;;;9.27;;
40122;SDS011;25832;45.490;4.912;2023-02-28T17:43:59;20.48;;;9.75;;
40122;SDS011;25832;45.490;4.912;2023-02-28T17:46:25;17.00;;;10.80;;